Airfield :
LOGIN :

Register | Disclaimer

   EN    FR    IT 

 










Legend :    VFR   Marginal VFR   IFR   Intensive IFR   Very Intensive IFR
Visi :
Ceiling :
>= 8 km
>= 3000ft
5 to 8 km
1000 to 3000 ft
1500m to 5 km
500 to 1000 ft
800 to 1500m
200 to 500 ft
< 800m
< 200 ft
Symbols :   Thunderstorms  Fog  Heavy snow  Heavy precipitations  Wind > 20 kt
SIGMETs :     Misc.  Thunderstorms  Icing  Turbulence  Mountain Waves  Volcanic Ashes







- Airport Elevation : 268 ft
- IATA code : BFS
- Download approach charts


EGAA - Belfast Aldergrove

CURRENT METAR :
  • 211520Z 14013KT CAVOK 18/11 Q1005

EXPIRED METARs :
  • 211450Z 14010KT CAVOK 19/11 Q1006
  • 211420Z 14015KT CAVOK 19/11 Q1006
  • 211350Z 13016KT CAVOK 19/11 Q1006
  • 211320Z 13018KT CAVOK 19/11 Q1006
  • 211250Z 12018KT CAVOK 19/10 Q1006

TAF TAF EGAA
Valid from the 21 at 12:00 until the 22 at 12:00 UTC


211058Z 2112/2212 12018G28KT 9999 FEW040
BECMG 2114/2118 12012KT
TEMPO 2117/2212 8000 SHRA
PROB30
TEMPO 2118/2210 13015G25KT 4000 +SHRA +TSRA
PROB40
TEMPO 2120/2208 BKN014
TEMPO 2208/2212 FEW008 BKN012
No reported NOTAMs for that airfield.



MET'MAP, your aeronautical weather chart ! - Copyright ORBIFLY December 2007 - Disclaimer

ORBIFLY MET'MAP TEAM :

Programming & Development : Alexandra Zaïnal
Concept & Development : Baudouin d'Aumeries
Co-Development & Prog : Marc-Olivier Méhu
Technical & hardware support : Manuel Goepfert

Contact : metmap@orbifly.com




SOURCES & CREDITS :

   NOAA